Time;durP1;ratioP1;P1;durP2;ratioP2;P2;SDS_P1;SDS_P2;PMS_P1;PMS_P2;Temp;Humidity;BMP_temperature;BMP_pressure;BME280_temperature;BME280_humidity;BME280_pressure;Samples;Min_cycle;Max_cycle;Signal;HPM_P1;HPM_P2
2023/08/08 00:00:22;;;;;;;11.57;3.30;;;;;;;-144.73;100.00;54493.91;5034573;28;20027;-75
2023/08/08 00:02:48;;;;;;;17.02;3.85;;;;;;;-144.73;100.00;54514.44;4933481;28;20027;-76
2023/08/08 00:05:13;;;;;;;12.18;3.33;;;;;;;-144.73;100.00;54516.47;5013470;28;20064;-78
2023/08/08 00:07:39;;;;;;;13.75;3.28;;;;;;;-144.73;100.00;54539.06;5004133;28;20117;-78
2023/08/08 00:10:04;;;;;;;12.20;3.00;;;;;;;-144.73;100.00;54530.84;4967072;28;20049;-79
2023/08/08 00:12:30;;;;;;;11.63;3.17;;;;;;;-144.73;100.00;54530.84;4955741;28;20046;-79
2023/08/08 00:14:55;;;;;;;17.52;3.30;;;;;;;-144.73;100.00;54557.53;4957894;28;20031;-76
2023/08/08 00:17:20;;;;;;;11.75;2.97;;;;;;;-144.73;100.00;54547.28;4993981;28;20040;-77
2023/08/08 00:19:46;;;;;;;17.73;3.70;;;;;;;-144.73;100.00;54489.81;4961696;28;20110;-77
2023/08/08 00:22:11;;;;;;;19.63;4.00;;;;;;;-144.73;100.00;54498.00;4936303;28;20092;-77
2023/08/08 00:24:37;;;;;;;14.23;3.83;;;;;;;-144.73;100.00;54516.47;4990983;28;20033;-77
2023/08/08 00:27:02;;;;;;;10.68;3.88;;;;;;;-144.73;100.00;54547.28;4948551;28;20062;-77
2023/08/08 00:29:27;;;;;;;9.30;2.95;;;;;;;-144.73;100.00;54510.31;4936119;28;20110;-77
2023/08/08 00:31:53;;;;;;;13.55;3.50;;;;;;;-144.73;100.00;54522.63;5014704;28;20041;-76
2023/08/08 00:34:19;;;;;;;21.15;5.47;;;;;;;-144.73;100.00;54489.81;5009442;28;20032;-76
2023/08/08 00:36:44;;;;;;;13.68;3.47;;;;;;;-144.73;100.00;54530.84;4990792;28;20033;-76
2023/08/08 00:39:09;;;;;;;14.52;4.07;;;;;;;-144.73;100.00;54518.53;4994006;28;20044;-76
2023/08/08 00:41:35;;;;;;;14.55;3.53;;;;;;;-144.73;100.00;54512.38;4957033;28;20035;-76
2023/08/08 00:44:00;;;;;;;9.55;3.60;;;;;;;-144.73;100.00;54518.53;4966720;28;20035;-77
2023/08/08 00:46:26;;;;;;;15.45;3.60;;;;;;;-144.73;100.00;54489.81;5014505;28;20032;-77
2023/08/08 00:48:52;;;;;;;15.00;3.50;;;;;;;-144.73;100.00;54539.06;5028455;28;20060;-77
2023/08/08 00:51:18;;;;;;;16.30;4.60;;;;;;;-144.73;100.00;54506.22;4978565;28;21036;-76
2023/08/08 00:53:46;;;;;;;23.23;4.35;;;;;;;-144.73;100.00;54512.38;5006046;28;20065;-76
2023/08/08 00:56:13;;;;;;;18.65;3.95;;;;;;;-144.73;100.00;54514.44;4999924;28;20039;-76
2023/08/08 00:58:40;;;;;;;13.13;4.05;;;;;;;-144.73;100.00;54518.53;4977033;28;20099;-75
2023/08/08 01:01:05;;;;;;;12.57;3.70;;;;;;;-144.73;100.00;54522.63;4934999;28;20067;-75
2023/08/08 01:03:31;;;;;;;7.35;2.88;;;;;;;-144.73;100.00;54539.06;4946340;28;20047;-75
2023/08/08 01:06:03;;;;;;;10.30;3.28;;;;;;;-144.73;100.00;54539.06;4934067;29;20077;-75
2023/08/08 01:08:49;;;;;;;14.77;3.88;;;;;;;-144.73;100.00;54551.38;4941324;28;20035;-75
2023/08/08 01:11:16;;;;;;;13.85;3.15;;;;;;;-144.73;100.00;54493.91;4963793;28;20039;-75
2023/08/08 01:13:43;;;;;;;10.35;3.03;;;;;;;-144.73;100.00;54514.44;4935340;28;20031;-76
2023/08/08 01:16:10;;;;;;;13.52;3.72;;;;;;;-144.73;100.00;54551.38;5003043;28;20064;-76
2023/08/08 01:18:37;;;;;;;14.57;3.53;;;;;;;-144.73;100.00;54528.81;4987475;28;20028;-76
2023/08/08 01:21:03;;;;;;;16.52;4.22;;;;;;;-144.73;100.00;54498.00;5005277;28;20043;-76
2023/08/08 01:23:44;;;;;;;11.77;3.05;;;;;;;-144.73;100.00;54498.00;4986019;28;20057;-76
2023/08/08 01:26:09;;;;;;;7.70;3.08;;;;;;;-144.73;100.00;54555.47;4982758;28;20037;-76
2023/08/08 01:28:35;;;;;;;16.50;3.92;;;;;;;-144.73;100.00;54604.75;4945093;28;20027;-76
2023/08/08 01:31:00;;;;;;;13.85;3.15;;;;;;;-144.73;100.00;54539.06;5006045;28;20040;-75
2023/08/08 01:33:26;;;;;;;14.20;4.03;;;;;;;-144.73;100.00;54510.31;4963038;28;20026;-75
2023/08/08 01:36:13;;;;;;;16.13;3.28;;;;;;;-144.73;100.00;54549.31;4974552;28;20033;-75
2023/08/08 01:38:42;;;;;;;11.05;2.80;;;;;;;-144.73;100.00;54522.63;4985764;28;20080;-75
2023/08/08 01:41:08;;;;;;;9.57;3.30;;;;;;;-144.73;100.00;54526.75;5031517;28;20044;-74
2023/08/08 01:43:35;;;;;;;14.10;3.47;;;;;;;-144.73;100.00;54530.84;5017196;28;20122;-75
2023/08/08 01:46:01;;;;;;;14.30;3.05;;;;;;;-144.73;100.00;54530.84;5001413;28;20032;-74
2023/08/08 01:48:27;;;;;;;20.13;3.33;;;;;;;-144.73;100.00;54539.06;4963327;28;20013;-74
2023/08/08 01:50:53;;;;;;;12.90;3.75;;;;;;;-144.73;100.00;54559.59;4950632;28;20162;-74
2023/08/08 01:53:18;;;;;;;13.57;2.78;;;;;;;-144.73;100.00;54510.31;4965329;28;20141;-74
2023/08/08 01:55:43;;;;;;;11.63;3.08;;;;;;;-144.73;100.00;54530.84;4943976;28;20031;-74
2023/08/08 01:58:09;;;;;;;7.18;2.58;;;;;;;-144.73;100.00;54512.38;4992279;28;20016;-74
2023/08/08 02:00:34;;;;;;;10.93;3.00;;;;;;;-144.73;100.00;54502.13;4957052;28;20046;-74
2023/08/08 02:03:00;;;;;;;13.55;2.75;;;;;;;-144.73;100.00;54528.81;5039314;28;20135;-74
2023/08/08 02:05:26;;;;;;;9.18;2.65;;;;;;;-144.73;100.00;54516.47;4991285;28;20029;-74
2023/08/08 02:07:51;;;;;;;12.55;2.70;;;;;;;-144.73;100.00;54539.06;4982547;28;20037;-74
2023/08/08 02:10:16;;;;;;;12.68;3.33;;;;;;;-144.73;100.00;54539.06;4967707;28;20474;-74
2023/08/08 02:12:42;;;;;;;14.35;3.55;;;;;;;-144.73;100.00;54553.44;4962667;28;20050;-74
2023/08/08 02:15:07;;;;;;;12.93;2.70;;;;;;;-144.73;100.00;54518.53;5021714;28;20055;-74
2023/08/08 02:17:32;;;;;;;17.60;2.97;;;;;;;-144.73;100.00;54522.63;5000029;28;20033;-74
2023/08/08 02:19:58;;;;;;;7.72;2.33;;;;;;;-144.73;100.00;54571.91;4983137;28;20102;-75
2023/08/08 02:22:23;;;;;;;15.38;2.50;;;;;;;-144.73;100.00;54563.69;5006391;28;20028;-74
2023/08/08 02:24:49;;;;;;;6.43;2.15;;;;;;;-144.73;100.00;54506.22;5036194;28;20039;-74
2023/08/08 02:27:14;;;;;;;10.05;2.33;;;;;;;-144.73;100.00;54563.69;4957837;28;20033;-74
2023/08/08 02:29:39;;;;;;;7.90;2.13;;;;;;;-144.73;100.00;54530.84;4933680;28;20088;-74
2023/08/08 02:32:05;;;;;;;7.82;2.50;;;;;;;-144.73;100.00;54555.47;4935024;28;20065;-74
2023/08/08 02:34:31;;;;;;;6.47;2.30;;;;;;;-144.73;100.00;54567.81;4933195;28;20024;-74
2023/08/08 02:36:56;;;;;;;7.85;2.13;;;;;;;-144.73;100.00;54526.75;4982346;28;20053;-74
2023/08/08 02:39:21;;;;;;;11.70;2.03;;;;;;;-144.73;100.00;54514.44;4941237;28;20085;-74
2023/08/08 02:41:46;;;;;;;5.90;2.00;;;;;;;-144.73;100.00;54547.28;5032423;28;20503;-73
2023/08/08 02:44:12;;;;;;;7.90;2.25;;;;;;;-144.73;100.00;54580.13;4942745;28;20031;-74
2023/08/08 02:46:37;;;;;;;8.70;2.13;;;;;;;-144.73;100.00;54555.47;4982416;28;20492;-74
2023/08/08 02:49:06;;;;;;;6.70;2.53;;;;;;;-144.73;100.00;54493.91;4979369;28;20020;-74
2023/08/08 02:51:31;;;;;;;15.63;2.20;;;;;;;-144.73;100.00;54576.00;4995547;28;20025;-74
2023/08/08 02:53:57;;;;;;;7.07;2.15;;;;;;;-144.73;100.00;54543.16;5016866;28;20128;-74
2023/08/08 02:56:22;;;;;;;12.05;2.20;;;;;;;-144.73;100.00;54551.38;4969221;28;20025;-74
2023/08/08 02:58:48;;;;;;;9.90;1.90;;;;;;;-144.73;100.00;54567.81;4990417;28;20028;-74
2023/08/08 03:01:14;;;;;;;4.93;2.00;;;;;;;-144.73;100.00;54563.69;4950747;28;20039;-74
2023/08/08 03:03:40;;;;;;;5.82;1.73;;;;;;;-144.73;100.00;54555.47;4968655;28;20026;-74
2023/08/08 03:06:06;;;;;;;13.85;2.00;;;;;;;-144.73;100.00;54551.38;4947965;28;20039;-73
2023/08/08 03:08:31;;;;;;;9.00;2.78;;;;;;;-144.73;100.00;54530.84;4966329;28;20032;-73
2023/08/08 03:10:56;;;;;;;7.55;2.17;;;;;;;-144.73;100.00;54547.28;4966843;28;20031;-73
2023/08/08 03:13:22;;;;;;;10.10;1.58;;;;;;;-144.73;100.00;54555.47;4981392;28;20057;-74
2023/08/08 03:15:48;;;;;;;8.65;2.08;;;;;;;-144.73;100.00;54500.06;5022569;28;20032;-73
2023/08/08 03:18:13;;;;;;;5.10;2.08;;;;;;;-144.73;100.00;54526.75;5016857;28;20111;-74
2023/08/08 03:20:38;;;;;;;12.27;2.72;;;;;;;-144.73;100.00;54518.53;5015728;28;20035;-73
2023/08/08 03:23:04;;;;;;;7.38;1.90;;;;;;;-144.73;100.00;54500.06;5019735;28;20029;-73
2023/08/08 03:25:29;;;;;;;11.40;2.25;;;;;;;-144.73;100.00;54545.22;5001512;28;20041;-73
2023/08/08 03:27:54;;;;;;;10.63;2.17;;;;;;;-144.73;100.00;54539.06;4950264;28;20024;-74
2023/08/08 03:30:20;;;;;;;9.30;2.05;;;;;;;-144.73;100.00;54522.63;4989899;28;20107;-74
2023/08/08 03:32:46;;;;;;;8.30;2.58;;;;;;;-144.73;100.00;54543.16;4983626;28;20019;-74
2023/08/08 03:35:11;;;;;;;8.80;2.05;;;;;;;-144.73;100.00;54551.38;4947116;28;20539;-74
2023/08/08 03:37:36;;;;;;;10.85;2.33;;;;;;;-144.73;100.00;54563.69;5031170;28;20504;-74
2023/08/08 03:40:02;;;;;;;8.98;2.25;;;;;;;-144.73;100.00;54522.63;4940198;28;20038;-74
2023/08/08 03:42:28;;;;;;;10.10;2.40;;;;;;;-144.73;100.00;54567.81;4939005;28;20034;-74
2023/08/08 03:44:53;;;;;;;7.82;1.90;;;;;;;-144.73;100.00;54539.06;4932185;28;20031;-74
2023/08/08 03:47:18;;;;;;;13.35;2.53;;;;;;;-144.73;100.00;54543.16;4935607;28;20889;-74
2023/08/08 03:49:44;;;;;;;6.70;2.17;;;;;;;-144.73;100.00;54518.53;4963699;28;20024;-74
2023/08/08 03:52:09;;;;;;;8.25;2.20;;;;;;;-144.73;100.00;54506.22;5013586;28;20049;-74
2023/08/08 03:54:34;;;;;;;8.57;2.55;;;;;;;-144.73;100.00;54549.31;4993456;28;20019;-74
2023/08/08 03:57:01;;;;;;;11.80;2.55;;;;;;;-144.73;100.00;54522.63;4938802;28;20111;-74
2023/08/08 03:59:26;;;;;;;7.85;2.40;;;;;;;-144.73;100.00;54547.28;4932134;28;20102;-74
2023/08/08 04:01:52;;;;;;;8.90;2.22;;;;;;;-144.73;100.00;54539.06;4932823;28;20131;-74
2023/08/08 04:04:18;;;;;;;9.00;1.98;;;;;;;-144.73;100.00;54545.22;4932602;28;20110;-74
2023/08/08 04:06:43;;;;;;;7.00;2.17;;;;;;;-144.73;100.00;54549.31;4971782;28;20114;-74
2023/08/08 04:09:08;;;;;;;7.65;2.58;;;;;;;-144.73;100.00;54559.59;4944221;28;20019;-74
2023/08/08 04:11:35;;;;;;;5.53;2.00;;;;;;;-144.73;100.00;54576.00;4996195;28;20029;-75
2023/08/08 04:14:01;;;;;;;11.48;2.85;;;;;;;-144.73;100.00;54551.38;4947820;28;20624;-74
2023/08/08 04:16:27;;;;;;;8.02;2.63;;;;;;;-144.73;100.00;54539.06;4962150;28;20053;-74
2023/08/08 04:18:53;;;;;;;6.88;2.28;;;;;;;-144.73;100.00;54539.06;5023996;28;20048;-74
2023/08/08 04:21:18;;;;;;;8.27;2.13;;;;;;;-144.73;100.00;54571.91;4932102;28;20047;-74
2023/08/08 04:23:43;;;;;;;11.32;2.58;;;;;;;-144.73;100.00;54539.06;4937197;28;20115;-74
2023/08/08 04:26:09;;;;;;;5.88;2.17;;;;;;;-144.73;100.00;54543.16;4931483;28;20043;-74
2023/08/08 04:28:34;;;;;;;11.77;2.30;;;;;;;-144.73;100.00;54539.06;4931978;29;20023;-74
2023/08/08 04:30:59;;;;;;;13.68;2.45;;;;;;;-144.73;100.00;54539.06;4932171;28;20046;-74
2023/08/08 04:33:24;;;;;;;10.70;2.33;;;;;;;-144.73;100.00;54584.22;4945735;28;20030;-74
2023/08/08 04:35:50;;;;;;;7.68;1.92;;;;;;;-144.73;100.00;54580.13;4982569;28;20039;-74
2023/08/08 04:38:15;;;;;;;11.15;2.90;;;;;;;-144.73;100.00;54543.16;4948740;28;20466;-74
2023/08/08 04:40:41;;;;;;;15.20;2.50;;;;;;;-144.73;100.00;54555.47;4947984;28;20050;-74
2023/08/08 04:43:06;;;;;;;9.18;2.20;;;;;;;-144.73;100.00;54567.81;4931470;28;20035;-75
2023/08/08 04:45:32;;;;;;;10.50;2.20;;;;;;;-144.73;100.00;54522.63;4948840;28;20035;-74
2023/08/08 04:47:57;;;;;;;6.28;1.90;;;;;;;-144.73;100.00;54502.13;4931499;28;20110;-74
2023/08/08 04:50:23;;;;;;;11.25;2.50;;;;;;;-144.73;100.00;54571.91;5026455;28;20041;-74
2023/08/08 04:52:48;;;;;;;8.40;2.28;;;;;;;-144.73;100.00;54565.75;5007013;28;20031;-74
2023/08/08 04:55:13;;;;;;;7.75;2.38;;;;;;;-144.73;100.00;54567.81;4942051;28;21254;-74
2023/08/08 04:57:39;;;;;;;4.28;1.63;;;;;;;-144.73;100.00;54559.59;4937962;28;20025;-74
2023/08/08 05:00:08;;;;;;;8.93;1.85;;;;;;;-144.73;100.00;54563.69;4936302;28;20027;-74
2023/08/08 05:02:33;;;;;;;10.52;1.92;;;;;;;-144.73;100.00;54500.06;4966523;28;20031;-74
2023/08/08 05:05:00;;;;;;;8.50;1.77;;;;;;;-144.73;100.00;54539.06;5015983;28;20029;-74
2023/08/08 05:07:26;;;;;;;5.97;2.15;;;;;;;-144.73;100.00;54547.28;4954643;28;20029;-74
2023/08/08 05:09:51;;;;;;;10.95;1.85;;;;;;;-144.73;100.00;54604.75;4976721;28;20089;-74
2023/08/08 05:12:17;;;;;;;5.93;2.00;;;;;;;-144.73;100.00;54557.53;5006292;28;20036;-74
2023/08/08 05:14:42;;;;;;;6.57;2.10;;;;;;;-144.73;100.00;54545.22;5049132;28;20051;-73
2023/08/08 05:17:08;;;;;;;9.07;2.22;;;;;;;-144.73;100.00;54547.28;5021583;28;20044;-74
2023/08/08 05:19:33;;;;;;;7.25;2.30;;;;;;;-144.73;100.00;54553.44;4933936;28;20478;-74
2023/08/08 05:21:59;;;;;;;4.53;1.65;;;;;;;-144.73;100.00;54547.28;4934322;28;20046;-74
2023/08/08 05:24:25;;;;;;;10.80;2.00;;;;;;;-144.73;100.00;54571.91;4981959;28;20080;-74
2023/08/08 05:26:51;;;;;;;16.63;1.80;;;;;;;-144.73;100.00;54551.38;4955676;28;20240;-74
2023/08/08 05:29:16;;;;;;;9.88;2.28;;;;;;;-144.73;100.00;54518.53;4935414;28;20027;-75
2023/08/08 05:31:41;;;;;;;7.97;2.35;;;;;;;-144.73;100.00;54571.91;4951441;28;20051;-74
2023/08/08 05:34:07;;;;;;;3.55;1.33;;;;;;;-144.73;100.00;54543.16;4951122;29;20049;-74
2023/08/08 05:36:32;;;;;;;9.93;1.90;;;;;;;-144.73;100.00;54526.75;4933803;28;20490;-74
2023/08/08 05:38:58;;;;;;;10.18;2.72;;;;;;;-144.73;100.00;54580.13;4934651;28;20019;-74
2023/08/08 05:41:23;;;;;;;10.75;2.20;;;;;;;-144.73;100.00;54576.00;4993089;28;20516;-74
2023/08/08 05:43:48;;;;;;;11.52;2.25;;;;;;;-144.73;100.00;54576.00;4934721;28;20035;-74
2023/08/08 05:46:14;;;;;;;18.52;2.15;;;;;;;-144.73;100.00;54551.38;4974315;28;20031;-74
2023/08/08 05:48:39;;;;;;;13.82;1.90;;;;;;;-144.73;100.00;54539.06;5019566;28;20029;-74
2023/08/08 05:51:05;;;;;;;12.18;2.05;;;;;;;-144.73;100.00;54514.44;4963789;28;20042;-74
2023/08/08 05:53:32;;;;;;;8.10;1.77;;;;;;;-144.73;100.00;54539.06;4934458;28;20102;-74
2023/08/08 05:55:58;;;;;;;14.45;2.20;;;;;;;-144.73;100.00;54518.53;4987423;28;20501;-74
2023/08/08 05:58:23;;;;;;;9.60;2.42;;;;;;;-144.73;100.00;54522.63;4974132;28;20081;-74
2023/08/08 06:00:49;;;;;;;10.73;2.13;;;;;;;-144.73;100.00;54539.06;4938678;28;20510;-74
2023/08/08 06:03:15;;;;;;;11.32;2.05;;;;;;;-144.73;100.00;54539.06;4947441;28;20035;-74
2023/08/08 06:05:40;;;;;;;10.77;1.88;;;;;;;-144.73;100.00;54506.22;5001991;28;20029;-74
2023/08/08 06:08:11;;;;;;;3.60;1.52;;;;;;;-144.73;100.00;54498.00;4980282;28;20049;-74
2023/08/08 06:10:36;;;;;;;8.70;1.88;;;;;;;-144.73;100.00;54520.59;4979783;28;20038;-74
2023/08/08 06:13:02;;;;;;;9.00;2.10;;;;;;;-144.73;100.00;54510.31;4954217;28;20023;-74
2023/08/08 06:15:27;;;;;;;4.15;1.60;;;;;;;-144.73;100.00;54547.28;4965594;28;20023;-74
2023/08/08 06:17:52;;;;;;;10.27;1.73;;;;;;;-144.73;100.00;54518.53;4973048;28;20110;-74
2023/08/08 06:20:18;;;;;;;7.25;1.73;;;;;;;-144.73;100.00;54510.31;4979749;28;20497;-74
2023/08/08 06:22:43;;;;;;;6.00;1.95;;;;;;;-144.73;100.00;54543.16;4962049;28;20027;-74
2023/08/08 06:25:08;;;;;;;6.95;2.20;;;;;;;-144.73;100.00;54502.13;4933163;28;20123;-74
2023/08/08 06:27:34;;;;;;;7.80;1.92;;;;;;;-144.73;100.00;54539.06;4971728;28;20085;-75
2023/08/08 06:29:59;;;;;;;10.05;2.15;;;;;;;-144.73;100.00;54553.44;4955320;28;20130;-74
2023/08/08 06:32:25;;;;;;;8.18;2.08;;;;;;;-144.73;100.00;54502.13;4933038;28;20028;-74
2023/08/08 06:34:50;;;;;;;5.13;2.10;;;;;;;-144.73;100.00;54522.63;4943749;28;20019;-74
2023/08/08 06:37:16;;;;;;;9.45;2.30;;;;;;;-144.73;100.00;54518.53;4950044;28;20040;-74
2023/08/08 06:39:41;;;;;;;10.02;2.60;;;;;;;-144.73;100.00;54493.91;4942362;28;20019;-74
2023/08/08 06:42:07;;;;;;;8.02;2.22;;;;;;;-144.73;100.00;54514.44;4944877;28;20039;-74
2023/08/08 06:44:33;;;;;;;16.92;2.63;;;;;;;-144.73;100.00;54547.28;4933748;28;20031;-75
2023/08/08 06:46:59;;;;;;;21.58;2.15;;;;;;;-144.73;100.00;54539.06;4932647;28;20035;-75
2023/08/08 06:49:24;;;;;;;23.10;2.67;;;;;;;-144.73;100.00;54539.06;4973336;28;20068;-74
2023/08/08 06:51:49;;;;;;;12.80;2.13;;;;;;;-144.73;100.00;54547.28;4953928;28;20031;-74
2023/08/08 06:54:15;;;;;;;11.35;2.28;;;;;;;-144.73;100.00;54547.28;4950364;28;20031;-74
2023/08/08 06:56:40;;;;;;;3.90;2.00;;;;;;;-144.73;100.00;54539.06;4970007;28;20035;-73
2023/08/08 06:59:05;;;;;;;13.73;2.25;;;;;;;-144.73;100.00;54580.13;4933100;28;20026;-73
2023/08/08 07:01:31;;;;;;;10.52;2.17;;;;;;;-144.73;100.00;54539.06;4933244;28;20125;-74
2023/08/08 07:03:57;;;;;;;15.23;2.53;;;;;;;-144.73;100.00;54559.59;4950885;28;20530;-74
2023/08/08 07:06:22;;;;;;;7.97;1.70;;;;;;;-144.73;100.00;54547.28;5006044;28;20063;-73
2023/08/08 07:08:48;;;;;;;11.75;2.22;;;;;;;-144.73;100.00;54547.28;4933489;28;20023;-75
2023/08/08 07:11:13;;;;;;;11.73;3.05;;;;;;;-144.73;100.00;54526.75;5040605;28;20042;-75
2023/08/08 07:13:38;;;;;;;5.40;1.80;;;;;;;-144.73;100.00;54604.75;4991692;28;20051;-75
2023/08/08 07:16:04;;;;;;;6.05;1.90;;;;;;;-144.73;100.00;54530.84;4990680;28;20039;-75
2023/08/08 07:18:29;;;;;;;18.17;2.38;;;;;;;-144.73;100.00;54543.16;5006261;28;20578;-75
2023/08/08 07:20:56;;;;;;;8.68;1.95;;;;;;;-144.73;100.00;54504.16;5026513;28;20040;-75
2023/08/08 07:23:22;;;;;;;5.80;1.98;;;;;;;-144.73;100.00;54514.44;5011313;28;20049;-75
2023/08/08 07:25:47;;;;;;;11.80;2.92;;;;;;;-144.73;100.00;54539.06;5010857;28;20032;-74
2023/08/08 07:28:14;;;;;;;8.68;2.22;;;;;;;-144.73;100.00;54555.47;4937563;28;20076;-75
2023/08/08 07:30:40;;;;;;;11.25;2.08;;;;;;;-144.73;100.00;54526.75;4973667;28;20028;-74
2023/08/08 07:33:06;;;;;;;7.85;2.33;;;;;;;-144.73;100.00;54502.13;4967393;28;20019;-75
2023/08/08 07:35:33;;;;;;;9.07;1.90;;;;;;;-144.73;100.00;54541.13;4973052;28;20100;-75
2023/08/08 07:37:58;;;;;;;13.63;1.60;;;;;;;-144.73;100.00;54539.06;4939271;28;20024;-75
2023/08/08 07:40:23;;;;;;;11.13;1.65;;;;;;;-144.73;100.00;54485.69;4971768;28;20052;-75
2023/08/08 07:42:49;;;;;;;8.95;1.85;;;;;;;-144.73;100.00;54518.53;4966961;28;20033;-74
2023/08/08 07:45:15;;;;;;;14.88;2.28;;;;;;;-144.73;100.00;54487.75;4978436;28;20062;-74
2023/08/08 07:47:40;;;;;;;6.65;1.60;;;;;;;-144.73;100.00;54500.06;4973315;28;20024;-75
2023/08/08 07:50:09;;;;;;;6.38;1.77;;;;;;;-144.73;100.00;54493.91;4998647;28;20028;-74
2023/08/08 07:52:35;;;;;;;7.78;2.03;;;;;;;-144.73;100.00;54502.13;4988226;28;20066;-74
2023/08/08 07:55:01;;;;;;;6.13;1.80;;;;;;;-144.73;100.00;54483.66;4976020;28;20023;-74
2023/08/08 07:57:27;;;;;;;9.23;2.20;;;;;;;-144.73;100.00;54514.44;4979664;28;20036;-75
2023/08/08 07:59:52;;;;;;;14.75;2.28;;;;;;;-144.73;100.00;54510.31;4939013;28;20028;-74
2023/08/08 08:02:18;;;;;;;11.20;1.90;;;;;;;-144.73;100.00;54543.16;4958387;28;20085;-74
2023/08/08 08:04:43;;;;;;;15.00;2.40;;;;;;;-144.73;100.00;54551.38;4949385;28;20373;-73
2023/08/08 08:07:08;;;;;;;6.68;2.13;;;;;;;-144.73;100.00;54526.75;4965385;28;20059;-73
2023/08/08 08:09:34;;;;;;;12.73;2.50;;;;;;;-144.73;100.00;54530.84;4992643;28;20030;-73
2023/08/08 08:11:59;;;;;;;13.57;2.53;;;;;;;-144.73;100.00;54510.31;4978659;28;20510;-73
2023/08/08 08:14:24;;;;;;;9.68;2.38;;;;;;;-144.73;100.00;54524.69;4948600;28;20042;-74
2023/08/08 08:16:50;;;;;;;6.75;2.13;;;;;;;-144.73;100.00;54539.06;4931904;28;20038;-74
2023/08/08 08:19:15;;;;;;;14.43;2.80;;;;;;;-144.73;100.00;54516.47;4932776;28;20023;-74
2023/08/08 08:21:41;;;;;;;10.07;2.25;;;;;;;-144.73;100.00;54510.31;4990772;28;20125;-74
2023/08/08 08:24:09;;;;;;;17.75;2.30;;;;;;;-144.73;100.00;54539.06;4948693;28;20023;-74
2023/08/08 08:26:35;;;;;;;13.20;3.28;;;;;;;-144.73;100.00;54516.47;4985581;28;20033;-74
2023/08/08 08:29:00;;;;;;;10.30;2.58;;;;;;;-144.73;100.00;54502.13;4975582;28;20034;-74
2023/08/08 08:31:26;;;;;;;6.45;2.83;;;;;;;-144.73;100.00;54555.47;4999124;28;20042;-74
2023/08/08 08:33:53;;;;;;;8.82;2.63;;;;;;;-144.73;100.00;54518.53;5004365;28;20031;-74
2023/08/08 08:36:20;;;;;;;7.07;1.90;;;;;;;-144.73;100.00;54563.69;5015333;28;20033;-74
2023/08/08 08:38:49;;;;;;;10.38;1.67;;;;;;;-144.73;100.00;54510.31;4981681;28;20097;-75
2023/08/08 08:41:18;;;;;;;5.90;1.75;;;;;;;-144.73;100.00;54506.22;4951366;28;20097;-74
2023/08/08 08:43:48;;;;;;;10.02;1.80;;;;;;;-144.73;100.00;54510.31;4932821;28;20042;-74
2023/08/08 08:46:19;;;;;;;4.20;1.65;;;;;;;-144.73;100.00;54604.75;4951398;28;20039;-73
2023/08/08 08:48:45;;;;;;;8.75;1.77;;;;;;;-144.73;100.00;54510.31;4953314;28;20031;-75
2023/08/08 08:51:11;;;;;;;6.95;1.50;;;;;;;-144.73;100.00;54506.22;4963491;28;20035;-75
2023/08/08 08:53:46;;;;;;;6.78;2.00;;;;;;;-144.73;100.00;54512.38;4955780;28;20037;-74
2023/08/08 08:56:16;;;;;;;6.43;2.05;;;;;;;-144.73;100.00;54522.63;4968249;28;20290;-74
2023/08/08 08:58:42;;;;;;;14.00;1.95;;;;;;;-144.73;100.00;54502.13;4975300;28;20031;-73
2023/08/08 09:01:09;;;;;;;4.88;1.27;;;;;;;-144.73;100.00;54543.16;4946255;28;20043;-75
2023/08/08 09:03:34;;;;;;;8.63;1.70;;;;;;;-144.73;100.00;54539.06;4935709;28;20031;-74
2023/08/08 09:06:01;;;;;;;9.48;1.63;;;;;;;-144.73;100.00;54528.81;4969090;28;20027;-74
2023/08/08 09:08:26;;;;;;;7.40;1.50;;;;;;;-144.73;100.00;54543.16;4961340;28;20062;-74
2023/08/08 09:10:52;;;;;;;4.03;1.38;;;;;;;-144.73;100.00;54526.75;4934765;28;20035;-75
2023/08/08 09:13:17;;;;;;;7.53;1.90;;;;;;;-144.73;100.00;54530.84;4939555;29;20113;-74
2023/08/08 09:15:42;;;;;;;4.88;1.17;;;;;;;-144.73;100.00;54508.28;4967904;28;20035;-74
2023/08/08 09:18:08;;;;;;;5.63;1.38;;;;;;;-144.73;100.00;54539.06;4951825;28;20540;-74
2023/08/08 09:20:33;;;;;;;6.35;1.30;;;;;;;-144.73;100.00;54456.97;4933606;28;20039;-74
2023/08/08 09:22:59;;;;;;;8.65;1.80;;;;;;;-144.73;100.00;54543.16;4934683;28;20058;-74
2023/08/08 09:25:26;;;;;;;3.72;1.17;;;;;;;-144.73;100.00;54483.66;4946927;28;20072;-74
2023/08/08 09:27:55;;;;;;;18.33;2.33;;;;;;;-144.73;100.00;54502.13;4934503;28;20019;-75
2023/08/08 09:30:21;;;;;;;7.97;1.70;;;;;;;-144.73;100.00;54563.69;4975124;28;20031;-74
2023/08/08 09:32:47;;;;;;;6.13;1.63;;;;;;;-144.73;100.00;54522.63;4942614;28;20023;-74
2023/08/08 09:35:12;;;;;;;7.43;1.63;;;;;;;-144.73;100.00;54514.44;4947555;28;20050;-74
2023/08/08 09:37:38;;;;;;;8.40;1.90;;;;;;;-144.73;100.00;54506.22;4953709;28;20012;-74
2023/08/08 09:40:07;;;;;;;7.43;1.65;;;;;;;-144.73;100.00;54514.44;5044788;28;20044;-74
2023/08/08 09:42:33;;;;;;;6.72;1.80;;;;;;;-144.73;100.00;54485.69;4958915;28;20431;-74
2023/08/08 09:44:59;;;;;;;8.65;1.90;;;;;;;-144.73;100.00;54526.75;4959015;28;20035;-74
2023/08/08 09:47:30;;;;;;;13.18;1.60;;;;;;;-144.73;100.00;54539.06;4954308;28;20095;-74
2023/08/08 09:50:04;;;;;;;6.47;2.35;;;;;;;-144.73;100.00;54522.63;4996528;28;20013;-74
2023/08/08 09:52:30;;;;;;;9.07;1.55;;;;;;;-144.73;100.00;54498.00;4941563;28;20039;-74
2023/08/08 09:54:56;;;;;;;4.90;1.90;;;;;;;-144.73;100.00;54563.69;4966133;28;20023;-74
2023/08/08 09:57:23;;;;;;;14.65;1.92;;;;;;;-144.73;100.00;54539.06;4973784;28;20043;-73
2023/08/08 09:59:51;;;;;;;5.45;1.67;;;;;;;-144.73;100.00;54604.75;4984318;28;20017;-73
2023/08/08 10:02:16;;;;;;;2.95;1.27;;;;;;;-144.73;100.00;54551.38;4969606;28;20041;-73
2023/08/08 10:04:43;;;;;;;7.03;1.38;;;;;;;-144.73;100.00;54526.75;5005405;28;20035;-74
2023/08/08 10:07:09;;;;;;;11.18;1.92;;;;;;;-144.73;100.00;54539.06;4983380;28;20037;-72
2023/08/08 10:09:34;;;;;;;3.95;1.85;;;;;;;-144.73;100.00;54539.06;5019810;28;20031;-72
2023/08/08 10:12:00;;;;;;;4.03;1.60;;;;;;;-144.73;100.00;54539.06;5028945;28;20025;-75
2023/08/08 10:14:31;;;;;;;27.20;2.70;;;;;;;-144.73;100.00;54576.00;5034262;28;20021;-77
2023/08/08 10:16:56;;;;;;;6.00;2.10;;;;;;;-144.73;100.00;54539.06;5060605;28;20060;-74
2023/08/08 10:19:23;;;;;;;10.43;2.40;;;;;;;-144.73;100.00;54539.06;4973563;28;20065;-74
2023/08/08 10:21:55;;;;;;;10.82;2.38;;;;;;;-144.73;100.00;54506.22;4933579;28;20035;-74
2023/08/08 10:24:21;;;;;;;11.48;2.25;;;;;;;-144.73;100.00;54518.53;4962748;28;20062;-74
2023/08/08 10:26:57;;;;;;;13.70;2.17;;;;;;;-144.73;100.00;54518.53;4933835;28;20078;-74
2023/08/08 10:29:25;;;;;;;7.40;1.80;;;;;;;-144.73;100.00;54530.84;4954172;28;20071;-75
2023/08/08 10:32:01;;;;;;;11.60;2.25;;;;;;;-144.73;100.00;54506.22;4973377;28;20032;-76
2023/08/08 10:34:41;;;;;;;4.43;1.70;;;;;;;-144.73;100.00;54539.06;4961258;28;20031;-76
2023/08/08 10:37:12;;;;;;;2.78;1.13;;;;;;;-144.73;100.00;54514.44;4974954;28;20033;-77
2023/08/08 10:39:37;;;;;;;8.55;2.10;;;;;;;-144.73;100.00;54539.06;4998725;28;20088;-76
2023/08/08 10:42:04;;;;;;;8.63;2.22;;;;;;;-144.73;100.00;54567.81;4975629;28;20119;-76
2023/08/08 10:44:30;;;;;;;7.80;1.88;;;;;;;-144.73;100.00;54549.31;4946951;28;20118;-77
2023/08/08 10:46:56;;;;;;;10.00;2.90;;;;;;;-144.73;100.00;54563.69;4965005;28;20111;-76
2023/08/08 10:49:22;;;;;;;5.03;1.67;;;;;;;-144.73;100.00;54522.63;4985312;28;20115;-75
2023/08/08 10:51:50;;;;;;;9.10;2.13;;;;;;;-144.73;100.00;54506.22;4971537;28;20039;-74
2023/08/08 10:54:30;;;;;;;6.88;2.38;;;;;;;-144.73;100.00;54526.75;5004603;28;20040;-73
2023/08/08 10:56:59;;;;;;;7.32;1.75;;;;;;;-144.73;100.00;54498.00;4957285;28;20078;-73
2023/08/08 10:59:37;;;;;;;5.93;1.50;;;;;;;-144.73;100.00;54510.31;4988356;28;20027;-74